Time;durP1;ratioP1;P1;durP2;ratioP2;P2;SDS_P1;SDS_P2;PMS_P1;PMS_P2;Temp;Humidity;BMP_temperature;BMP_pressure;BME280_temperature;BME280_humidity;BME280_pressure;Samples;Min_cycle;Max_cycle;Signal;HPM_P1;HPM_P2
2022/06/10 00:00:37;;;;;;;1.27;1.17;;;25.80;71.40;;;;;;5115926;28;20976;-83
2022/06/10 00:03:05;;;;;;;1.40;1.30;;;25.80;71.30;;;;;;5116066;28;20938;-83
2022/06/10 00:05:36;;;;;;;1.77;1.50;;;25.80;71.30;;;;;;5134082;28;20442;-83
2022/06/10 00:08:05;;;;;;;1.80;1.70;;;25.80;71.30;;;;;;5133867;28;20963;-83
2022/06/10 00:10:32;;;;;;;1.30;1.20;;;25.80;71.30;;;;;;5133890;28;20445;-83
2022/06/10 00:12:59;;;;;;;2.30;1.73;;;25.80;71.30;;;;;;5115456;28;20457;-83
2022/06/10 00:15:26;;;;;;;1.80;1.27;;;25.80;71.30;;;;;;5133661;28;20944;-83
2022/06/10 00:17:53;;;;;;;1.90;1.57;;;25.80;71.30;;;;;;5133427;28;20445;-83
2022/06/10 00:20:24;;;;;;;1.87;1.30;;;25.80;71.20;;;;;;5133926;28;20439;-83
2022/06/10 00:22:52;;;;;;;1.33;1.23;;;25.80;71.20;;;;;;5133747;28;20488;-83
2022/06/10 00:25:20;;;;;;;1.50;1.40;;;25.80;71.20;;;;;;5133851;28;20445;-83
2022/06/10 00:27:47;;;;;;;1.97;1.77;;;25.70;71.10;;;;;;5133837;28;20442;-83
2022/06/10 00:30:16;;;;;;;2.17;1.37;;;25.70;71.10;;;;;;5133876;28;20441;-83
2022/06/10 00:32:43;;;;;;;1.60;1.50;;;25.70;71.10;;;;;;5133753;28;20443;-83
2022/06/10 00:35:11;;;;;;;1.50;1.37;;;25.70;71.10;;;;;;5133990;28;20442;-83
2022/06/10 00:37:38;;;;;;;1.10;1.00;;;25.70;71.10;;;;;;5133841;28;20849;-83
2022/06/10 00:40:09;;;;;;;1.70;1.40;;;25.70;71.10;;;;;;5133780;28;20858;-83
2022/06/10 00:42:37;;;;;;;1.43;1.30;;;25.70;71.10;;;;;;5133658;28;20473;-83
2022/06/10 00:45:06;;;;;;;1.40;1.20;;;25.70;71.10;;;;;;5133646;28;20446;-83
2022/06/10 00:47:36;;;;;;;1.10;1.00;;;25.70;71.10;;;;;;5133754;28;20438;-83
2022/06/10 00:50:17;;;;;;;3.73;1.20;;;25.70;71.00;;;;;;5133717;28;20470;-83
2022/06/10 00:52:48;;;;;;;1.30;1.20;;;25.70;71.00;;;;;;5133832;28;20525;-83
2022/06/10 00:55:17;;;;;;;1.47;1.37;;;25.70;71.10;;;;;;5134046;28;20772;-83
2022/06/10 00:57:46;;;;;;;1.10;0.97;;;25.70;71.10;;;;;;5135247;27;20434;-83
2022/06/10 01:00:17;;;;;;;1.90;1.20;;;25.70;71.10;;;;;;5137280;27;21071;-83
2022/06/10 01:02:45;;;;;;;1.50;1.30;;;25.70;71.10;;;;;;5137364;27;20491;-83
2022/06/10 01:05:16;;;;;;;1.33;1.23;;;25.70;71.10;;;;;;5137244;27;20525;-83
2022/06/10 01:07:51;;;;;;;1.50;1.30;;;25.70;71.00;;;;;;5137341;27;20616;-83
2022/06/10 01:10:20;;;;;;;1.67;1.40;;;25.70;71.00;;;;;;5137141;27;20512;-83
2022/06/10 01:13:07;;;;;;;1.60;1.50;;;25.60;71.00;;;;;;5137105;27;21036;-83
2022/06/10 01:15:42;;;;;;;2.23;1.10;;;25.70;70.90;;;;;;5137131;27;20449;-83
2022/06/10 01:18:32;;;;;;;1.40;1.17;;;25.70;71.00;;;;;;5137110;27;20442;-83
2022/06/10 01:21:20;;;;;;;2.43;1.40;;;25.70;71.70;;;;;;5136908;27;20434;-83
2022/06/10 01:24:10;;;;;;;1.60;1.20;;;25.60;70.90;;;;;;5132752;27;20484;-83
2022/06/10 01:30:03;;;;;;;1.33;1.20;;;25.70;70.90;;;;;;5136946;27;20429;-83
2022/06/10 01:32:35;;;;;;;1.33;1.20;;;25.60;70.90;;;;;;5136865;27;20875;-83
2022/06/10 01:35:15;;;;;;;1.77;1.50;;;25.60;70.90;;;;;;5136809;27;20530;-83
2022/06/10 01:37:58;;;;;;;1.20;1.10;;;25.60;70.80;;;;;;5136639;27;20525;-82
2022/06/10 01:40:36;;;;;;;1.23;1.13;;;25.70;70.90;;;;;;5136542;27;20457;-83
2022/06/10 01:43:08;;;;;;;1.43;1.20;;;25.60;70.80;;;;;;5136822;27;20526;-83
2022/06/10 01:45:40;;;;;;;1.30;1.20;;;25.60;70.80;;;;;;5136563;27;20514;-83
2022/06/10 01:48:14;;;;;;;1.53;1.43;;;25.60;70.80;;;;;;5136516;27;20492;-83
2022/06/10 01:50:46;;;;;;;1.30;1.20;;;25.60;70.70;;;;;;5136317;27;20443;-82
2022/06/10 01:53:20;;;;;;;1.30;1.20;;;25.60;70.70;;;;;;5136530;27;20975;-83
2022/06/10 01:55:51;;;;;;;2.03;1.00;;;25.60;70.70;;;;;;5136400;27;20525;-83
2022/06/10 01:58:24;;;;;;;1.20;1.07;;;25.60;70.60;;;;;;5136213;27;20521;-83
2022/06/10 02:00:56;;;;;;;1.30;1.10;;;25.60;70.60;;;;;;5135991;27;20465;-83
2022/06/10 02:03:29;;;;;;;1.20;1.00;;;25.60;70.60;;;;;;5136248;27;20488;-83
2022/06/10 02:06:04;;;;;;;1.50;1.20;;;25.60;70.60;;;;;;5136051;27;20493;-83
2022/06/10 02:08:35;;;;;;;1.30;1.10;;;25.60;70.60;;;;;;5135387;27;20524;-83
2022/06/10 02:11:06;;;;;;;1.60;1.20;;;25.60;70.60;;;;;;5135809;27;20458;-83
2022/06/10 02:13:37;;;;;;;1.27;1.17;;;25.60;70.50;;;;;;5117741;27;20438;-83
2022/06/10 02:16:08;;;;;;;1.40;1.00;;;25.60;70.50;;;;;;5135587;27;20877;-83
2022/06/10 02:18:41;;;;;;;1.93;1.30;;;25.60;70.50;;;;;;5136003;27;20525;-83
2022/06/10 02:21:14;;;;;;;1.37;1.27;;;25.60;70.40;;;;;;5135630;27;20588;-83
2022/06/10 02:23:50;;;;;;;1.40;1.20;;;25.60;71.30;;;;;;5135538;27;20573;-83
2022/06/10 02:26:18;;;;;;;1.73;1.60;;;25.60;70.30;;;;;;5135673;27;20438;-83
2022/06/10 02:28:50;;;;;;;1.30;1.10;;;25.60;70.40;;;;;;5135630;27;20445;-83
2022/06/10 02:31:22;;;;;;;1.47;1.10;;;25.60;70.40;;;;;;5135683;27;20445;-83
2022/06/10 02:33:50;;;;;;;1.17;1.00;;;25.60;70.40;;;;;;5135796;27;20771;-83
2022/06/10 02:36:23;;;;;;;1.37;1.17;;;25.60;70.40;;;;;;5135487;27;20435;-83
2022/06/10 02:38:56;;;;;;;1.13;0.90;;;25.60;70.30;;;;;;5135633;27;20827;-83
2022/06/10 02:41:32;;;;;;;1.10;1.00;;;25.60;70.30;;;;;;5135281;27;20464;-83
2022/06/10 02:44:06;;;;;;;1.20;1.10;;;25.60;70.30;;;;;;5135374;27;20481;-83
2022/06/10 02:46:37;;;;;;;1.90;1.43;;;25.60;70.30;;;;;;5135305;27;20449;-83
2022/06/10 02:49:09;;;;;;;1.70;1.20;;;25.60;70.20;;;;;;5135309;27;20517;-83
2022/06/10 02:51:38;;;;;;;1.73;1.20;;;25.60;70.20;;;;;;5135272;27;20533;-82
2022/06/10 02:54:09;;;;;;;1.10;1.00;;;25.60;70.30;;;;;;5135251;27;20434;-83
2022/06/10 02:56:36;;;;;;;1.20;1.10;;;25.60;70.20;;;;;;5135165;27;20838;-83
2022/06/10 03:02:01;;;;;;;1.43;1.10;;;25.60;70.20;;;;;;5134910;27;20457;-83
2022/06/10 03:04:39;;;;;;;1.37;1.27;;;25.60;70.20;;;;;;5134707;27;20482;-83
2022/06/10 03:07:21;;;;;;;1.30;1.13;;;25.60;70.20;;;;;;5134626;27;20953;-83
2022/06/10 03:10:01;;;;;;;1.83;1.40;;;25.60;70.10;;;;;;5134964;27;20453;-83
2022/06/10 03:12:37;;;;;;;1.37;1.17;;;25.60;70.10;;;;;;5134723;27;20980;-83
2022/06/10 03:15:16;;;;;;;1.10;0.90;;;25.60;70.10;;;;;;5134722;27;20446;-82
2022/06/10 03:17:54;;;;;;;1.20;1.10;;;25.60;70.10;;;;;;5134745;27;20448;-82
2022/06/10 03:20:32;;;;;;;1.23;1.13;;;25.60;70.30;;;;;;5134534;27;20788;-83
2022/06/10 03:23:12;;;;;;;1.10;1.00;;;25.60;70.00;;;;;;5134815;27;20485;-83
2022/06/10 03:25:46;;;;;;;1.27;1.17;;;25.60;70.00;;;;;;5134693;27;20460;-83
2022/06/10 03:28:19;;;;;;;1.20;1.10;;;25.60;69.90;;;;;;5134480;27;20433;-83
2022/06/10 03:30:52;;;;;;;1.67;1.20;;;25.60;70.00;;;;;;5134460;27;20434;-82
2022/06/10 03:33:25;;;;;;;1.20;1.10;;;25.60;69.80;;;;;;5134534;27;20453;-83
2022/06/10 03:35:57;;;;;;;1.10;1.00;;;25.60;69.80;;;;;;5134157;27;20862;-83
2022/06/10 03:38:24;;;;;;;1.67;1.10;;;25.60;69.80;;;;;;5134370;27;20442;-83
2022/06/10 03:40:57;;;;;;;1.60;0.97;;;25.60;69.90;;;;;;5115651;27;20434;-83
2022/06/10 03:43:25;;;;;;;2.33;1.17;;;25.60;69.80;;;;;;5134215;27;20488;-83
2022/06/10 03:45:58;;;;;;;1.53;1.00;;;25.60;69.80;;;;;;5115966;28;20942;-83
2022/06/10 03:48:26;;;;;;;1.30;1.20;;;25.60;69.70;;;;;;5134376;27;20763;-82
2022/06/10 03:50:56;;;;;;;1.20;1.10;;;25.60;69.80;;;;;;5134217;27;20925;-82
2022/06/10 03:53:25;;;;;;;1.10;1.00;;;25.60;70.60;;;;;;5134232;27;20942;-83
2022/06/10 03:55:53;;;;;;;1.10;1.00;;;25.60;69.70;;;;;;5134034;27;20812;-83
2022/06/10 03:58:20;;;;;;;1.30;1.20;;;25.60;69.70;;;;;;5134190;27;20446;-82
2022/06/10 04:00:47;;;;;;;1.00;0.90;;;25.60;69.70;;;;;;5133844;28;20976;-83
2022/06/10 04:03:15;;;;;;;1.93;1.43;;;25.60;69.70;;;;;;5113684;28;20477;-82
2022/06/10 04:05:43;;;;;;;1.20;1.10;;;25.50;69.50;;;;;;5114597;28;20438;-82
2022/06/10 04:08:11;;;;;;;1.30;1.00;;;25.60;69.70;;;;;;5094258;28;20482;-82
2022/06/10 04:10:39;;;;;;;1.60;1.10;;;25.60;69.70;;;;;;5113472;28;20856;-82
2022/06/10 04:13:07;;;;;;;1.20;1.10;;;25.60;69.60;;;;;;5114033;28;20537;-83
2022/06/10 04:15:34;;;;;;;0.93;0.83;;;25.60;69.60;;;;;;5113917;28;20443;-90
2022/06/10 04:18:01;;;;;;;1.20;1.10;;;25.60;69.70;;;;;;5113666;28;20851;-87
2022/06/10 04:20:31;;;;;;;1.13;1.03;;;25.50;69.70;;;;;;5114289;28;20856;-90
2022/06/10 04:22:58;;;;;;;1.20;1.07;;;25.50;69.90;;;;;;5114386;28;20884;-88
2022/06/10 04:25:27;;;;;;;3.90;1.90;;;25.50;70.00;;;;;;5113960;28;20501;-88
2022/06/10 04:27:55;;;;;;;4.60;2.70;;;25.50;69.70;;;;;;5113865;28;20435;-81
2022/06/10 04:30:25;;;;;;;3.53;2.90;;;25.50;68.20;;;;;;5113710;28;20463;-85
2022/06/10 04:32:52;;;;;;;5.30;2.70;;;25.40;68.30;;;;;;5118842;27;20957;-84
2022/06/10 04:35:19;;;;;;;3.57;2.33;;;25.20;67.10;;;;;;5138205;27;20434;-84
2022/06/10 04:37:46;;;;;;;4.03;3.30;;;25.20;68.00;;;;;;5138213;27;20517;-84
2022/06/10 04:40:16;;;;;;;4.23;2.83;;;25.10;67.30;;;;;;5138175;27;20472;-84
2022/06/10 04:42:45;;;;;;;4.47;3.07;;;25.00;67.40;;;;;;5137694;27;20462;-84
2022/06/10 04:45:13;;;;;;;4.87;3.40;;;24.90;67.60;;;;;;5138001;27;20572;-85
2022/06/10 04:47:40;;;;;;;5.00;3.37;;;24.80;67.60;;;;;;5137159;27;20442;-84
2022/06/10 04:50:09;;;;;;;6.80;3.80;;;24.70;67.40;;;;;;5137883;27;20445;-84
2022/06/10 04:52:37;;;;;;;4.73;2.90;;;24.70;67.60;;;;;;5137628;27;20517;-84
2022/06/10 04:55:05;;;;;;;5.37;3.40;;;24.70;67.80;;;;;;5137536;27;20446;-83
2022/06/10 04:57:32;;;;;;;6.70;3.90;;;24.60;68.00;;;;;;5137622;27;20445;-84
2022/06/10 05:00:00;;;;;;;8.73;3.30;;;24.60;68.30;;;;;;5137331;27;20544;-83
2022/06/10 05:02:27;;;;;;;6.20;2.97;;;24.60;68.40;;;;;;5137598;27;20436;-84
2022/06/10 05:04:54;;;;;;;4.37;2.93;;;24.50;68.40;;;;;;5136377;27;20485;-88
2022/06/10 05:07:21;;;;;;;8.83;3.93;;;24.50;68.50;;;;;;5135922;27;20487;-88
2022/06/10 05:09:48;;;;;;;5.40;3.33;;;24.50;68.70;;;;;;5133335;27;20474;-88
2022/06/10 05:12:14;;;;;;;6.10;2.80;;;24.50;68.50;;;;;;5137434;27;20981;-89
2022/06/10 05:14:41;;;;;;;4.90;2.40;;;24.50;68.50;;;;;;5137691;27;20985;-88
2022/06/10 05:17:10;;;;;;;6.33;3.00;;;24.50;68.70;;;;;;5137451;27;20496;-88
2022/06/10 05:19:37;;;;;;;6.63;3.27;;;24.50;68.60;;;;;;5137156;27;20545;-88
2022/06/10 05:22:05;;;;;;;7.87;2.80;;;24.50;68.70;;;;;;5137421;27;20632;-89
2022/06/10 05:24:32;;;;;;;3.93;2.50;;;24.50;68.70;;;;;;5137096;27;20521;-90
2022/06/10 05:26:59;;;;;;;5.27;2.70;;;24.50;68.60;;;;;;5136968;27;20454;-90
2022/06/10 05:29:26;;;;;;;3.07;2.10;;;24.50;68.60;;;;;;5137075;27;20921;-91
2022/06/10 05:31:53;;;;;;;8.10;3.00;;;24.50;68.90;;;;;;5137068;27;20446;-88
2022/06/10 05:37:06;;;;;;;6.87;2.60;;;24.50;68.90;;;;;;5135839;27;20429;-88
2022/06/10 05:39:33;;;;;;;6.63;2.77;;;24.50;68.90;;;;;;5136709;27;20439;-90
2022/06/10 05:42:05;;;;;;;6.30;2.60;;;24.60;68.60;;;;;;5136454;27;20545;-84
2022/06/10 05:44:33;;;;;;;4.20;2.10;;;24.50;68.50;;;;;;5114917;28;20569;-84
2022/06/10 05:47:01;;;;;;;4.10;2.13;;;24.60;68.90;;;;;;5115950;28;20976;-85
2022/06/10 05:49:30;;;;;;;3.77;2.13;;;24.60;68.80;;;;;;5116219;28;20447;-84
2022/06/10 05:51:57;;;;;;;3.80;2.07;;;24.70;68.90;;;;;;5116524;28;20510;-84
2022/06/10 05:54:25;;;;;;;3.73;2.00;;;24.80;69.10;;;;;;5116373;28;20789;-84
2022/06/10 05:56:52;;;;;;;3.60;2.50;;;24.80;69.20;;;;;;5115739;28;20477;-84
2022/06/10 05:59:19;;;;;;;3.60;1.90;;;24.90;69.30;;;;;;5116252;28;20840;-85
2022/06/10 06:01:46;;;;;;;2.03;1.57;;;24.90;69.20;;;;;;5115671;28;20463;-85
2022/06/10 06:04:13;;;;;;;3.33;1.70;;;25.00;69.20;;;;;;5116039;28;20569;-86
2022/06/10 06:06:43;;;;;;;2.67;2.40;;;25.00;69.90;;;;;;5115885;28;20861;-86
2022/06/10 06:09:16;;;;;;;3.00;1.53;;;25.00;69.00;;;;;;5115710;28;20469;-86
2022/06/10 06:11:43;;;;;;;11.17;2.10;;;25.10;69.00;;;;;;5115599;28;20470;-86
2022/06/10 06:14:10;;;;;;;3.20;1.70;;;25.10;69.00;;;;;;5115809;28;20554;-86
2022/06/10 06:16:37;;;;;;;3.20;2.00;;;25.10;68.90;;;;;;5116289;28;20522;-86
2022/06/10 06:19:04;;;;;;;3.00;1.50;;;25.20;68.90;;;;;;5115764;28;20542;-86
2022/06/10 06:21:31;;;;;;;2.77;1.60;;;25.20;68.90;;;;;;5115459;28;20533;-86
2022/06/10 06:24:00;;;;;;;4.03;1.43;;;25.20;68.80;;;;;;5115424;28;20478;-86
2022/06/10 06:26:27;;;;;;;2.53;1.60;;;25.20;68.90;;;;;;5115588;28;20526;-86
2022/06/10 06:28:54;;;;;;;3.57;2.10;;;25.20;68.90;;;;;;5115342;28;20457;-86
2022/06/10 06:31:22;;;;;;;1.67;1.53;;;25.20;68.90;;;;;;5115462;28;20500;-86
2022/06/10 06:33:48;;;;;;;3.23;1.87;;;25.30;69.00;;;;;;5115423;28;20443;-86
2022/06/10 06:36:22;;;;;;;2.20;1.77;;;25.30;68.90;;;;;;5115809;28;20530;-88
2022/06/10 06:38:50;;;;;;;2.40;1.67;;;25.30;69.00;;;;;;5115105;28;20526;-88
2022/06/10 06:41:19;;;;;;;2.70;1.67;;;25.30;69.10;;;;;;5115039;28;20467;-87
2022/06/10 06:43:46;;;;;;;2.10;1.20;;;25.30;69.10;;;;;;5115235;28;20567;-88
2022/06/10 06:46:15;;;;;;;2.73;1.70;;;25.30;69.10;;;;;;5115264;28;20528;-88
2022/06/10 06:48:43;;;;;;;3.03;1.80;;;25.40;69.20;;;;;;5114783;28;20454;-87
2022/06/10 06:51:10;;;;;;;2.27;1.47;;;25.40;70.10;;;;;;5114700;28;20533;-87
2022/06/10 06:53:37;;;;;;;1.77;1.30;;;25.30;69.10;;;;;;5114568;28;20538;-87
2022/06/10 06:56:06;;;;;;;1.60;1.40;;;25.40;69.20;;;;;;5114406;28;20482;-87
2022/06/10 06:58:34;;;;;;;2.47;1.50;;;25.40;69.30;;;;;;5114867;28;20541;-88
2022/06/10 07:01:01;;;;;;;2.10;1.20;;;25.40;69.30;;;;;;5114625;28;20894;-87
2022/06/10 07:03:28;;;;;;;3.23;1.87;;;25.40;69.20;;;;;;5114641;28;20481;-87
2022/06/10 07:05:55;;;;;;;1.77;1.37;;;25.40;69.20;;;;;;5114618;28;20991;-87
2022/06/10 07:08:30;;;;;;;2.00;1.30;;;25.40;69.10;;;;;;5114837;28;20446;-87
2022/06/10 07:10:58;;;;;;;2.63;1.33;;;25.40;69.10;;;;;;5114665;28;20455;-86
2022/06/10 07:13:25;;;;;;;2.43;1.13;;;25.40;69.10;;;;;;5114208;28;20869;-89
2022/06/10 07:15:53;;;;;;;1.30;1.20;;;25.40;69.10;;;;;;5114438;28;21042;-91
2022/06/10 07:18:23;;;;;;;1.63;1.40;;;25.40;69.00;;;;;;5114906;28;20528;-91
2022/06/10 07:20:50;;;;;;;3.00;1.60;;;25.40;69.10;;;;;;5114277;28;20518;-85
2022/06/10 07:23:19;;;;;;;1.90;1.30;;;25.50;69.20;;;;;;5114457;28;20435;-86
2022/06/10 07:25:47;;;;;;;2.40;1.40;;;25.40;69.10;;;;;;5114078;28;20490;-85
2022/06/10 07:28:14;;;;;;;2.83;1.43;;;25.50;69.20;;;;;;5114519;28;20492;-85
2022/06/10 07:30:43;;;;;;;2.50;1.63;;;25.50;69.20;;;;;;5114210;28;20481;-85
2022/06/10 07:33:12;;;;;;;2.40;1.53;;;25.50;69.10;;;;;;5113408;28;20439;-85
2022/06/10 07:35:39;;;;;;;1.93;1.43;;;25.50;69.00;;;;;;5113238;28;20443;-85
2022/06/10 07:38:07;;;;;;;1.60;1.50;;;25.50;69.00;;;;;;5113783;28;20454;-88
2022/06/10 07:43:22;;;;;;;3.43;1.47;;;25.50;69.00;;;;;;5114382;28;20851;-85
2022/06/10 07:45:49;;;;;;;3.33;1.60;;;25.50;69.10;;;;;;5114021;28;20557;-86
2022/06/10 07:48:18;;;;;;;1.60;1.50;;;25.50;69.10;;;;;;5113942;28;21009;-86
2022/06/10 07:50:46;;;;;;;2.60;1.17;;;25.50;69.10;;;;;;5114064;28;20526;-86
2022/06/10 07:53:15;;;;;;;1.20;1.00;;;25.50;69.00;;;;;;5117443;27;20596;-93
2022/06/10 07:55:44;;;;;;;3.63;1.20;;;25.50;69.00;;;;;;5133748;27;20443;-91
2022/06/10 07:58:12;;;;;;;1.43;1.33;;;25.50;69.20;;;;;;5134957;27;20938;-90
2022/06/10 08:00:39;;;;;;;1.23;1.13;;;25.50;69.20;;;;;;5134951;27;20568;-93
2022/06/10 08:03:07;;;;;;;1.97;1.20;;;25.50;69.20;;;;;;5134783;28;20532;-92
2022/06/10 08:05:35;;;;;;;5.27;1.70;;;25.50;69.30;;;;;;5136510;28;20572;-96
2022/06/10 08:08:03;;;;;;;3.93;1.70;;;25.40;68.80;;;;;;5141021;27;20480;-90
2022/06/10 08:10:33;;;;;;;2.63;1.37;;;25.40;68.70;;;;;;5138818;27;20458;-87
2022/06/10 08:13:00;;;;;;;2.40;1.33;;;25.40;68.80;;;;;;5138629;27;20458;-91
2022/06/10 08:15:28;;;;;;;1.73;1.20;;;25.50;69.00;;;;;;5139009;27;20536;-91
2022/06/10 08:17:56;;;;;;;2.83;1.70;;;25.50;69.00;;;;;;5139023;27;20453;-89
2022/06/10 08:22:32;;;;;;;3.00;1.60;;;25.50;69.00;;;;;;5141027;27;20461;-91
2022/06/10 08:23:13;;;;;;;1.40;1.30;;;25.50;69.10;;;;;;5138409;27;20792;-91
2022/06/10 08:25:40;;;;;;;1.90;1.10;;;25.50;69.10;;;;;;5138498;27;20473;-96
2022/06/10 08:28:08;;;;;;;1.53;1.20;;;25.50;69.00;;;;;;5138286;27;20536;-90
2022/06/10 08:30:35;;;;;;;1.60;1.20;;;25.50;69.10;;;;;;5138511;27;20470;-89
2022/06/10 08:33:03;;;;;;;1.40;1.30;;;25.50;69.00;;;;;;5139177;27;20526;-90
2022/06/10 08:35:30;;;;;;;2.13;1.17;;;25.50;69.10;;;;;;5138477;27;20533;-88
2022/06/10 08:37:57;;;;;;;2.03;1.20;;;25.60;69.20;;;;;;5138126;27;20524;-87
2022/06/10 08:40:36;;;;;;;2.40;1.50;;;25.60;69.20;;;;;;5122924;27;20542;-86
2022/06/10 08:43:13;;;;;;;2.00;1.10;;;25.60;69.10;;;;;;5128505;27;20460;-88
2022/06/10 08:45:47;;;;;;;3.40;1.60;;;25.60;69.20;;;;;;5137769;27;20573;-87
2022/06/10 08:48:24;;;;;;;1.50;1.30;;;25.60;69.20;;;;;;5138057;27;20455;-87
2022/06/10 08:51:05;;;;;;;1.13;1.03;;;25.70;69.20;;;;;;5137893;27;20473;-87
2022/06/10 08:54:00;;;;;;;1.93;1.10;;;25.70;69.30;;;;;;5137669;27;20427;-87
2022/06/10 08:56:33;;;;;;;2.30;1.10;;;25.70;69.30;;;;;;5119726;27;21025;-89
2022/06/10 08:59:07;;;;;;;1.40;1.03;;;25.70;69.40;;;;;;5138022;27;20435;-90
2022/06/10 09:01:43;;;;;;;1.50;1.03;;;25.70;69.40;;;;;;5137180;27;20564;-87
2022/06/10 09:04:31;;;;;;;1.70;1.10;;;25.70;69.40;;;;;;5143633;27;20430;-91
2022/06/10 09:07:03;;;;;;;1.17;1.07;;;25.70;69.30;;;;;;5139589;27;20704;-95
2022/06/10 09:09:32;;;;;;;1.97;1.20;;;25.70;69.30;;;;;;5138700;27;20430;-95
2022/06/10 09:12:11;;;;;;;1.07;0.93;;;25.70;69.40;;;;;;5138298;27;20462;-95
2022/06/10 09:14:38;;;;;;;1.80;1.13;;;25.70;69.40;;;;;;5138965;27;20438;-95
2022/06/10 09:17:12;;;;;;;1.40;1.10;;;25.70;69.40;;;;;;5138112;27;20537;-95
2022/06/10 09:19:51;;;;;;;1.50;1.10;;;25.80;69.50;;;;;;5138207;27;20438;-93
2022/06/10 09:22:25;;;;;;;1.30;1.13;;;25.80;69.50;;;;;;5138403;27;20974;-91
2022/06/10 09:24:59;;;;;;;1.20;1.10;;;25.70;69.40;;;;;;5137773;27;20549;-95
2022/06/10 09:27:31;;;;;;;1.47;1.10;;;25.80;69.60;;;;;;5138003;27;20443;-95
2022/06/10 09:30:03;;;;;;;1.73;1.03;;;25.80;69.70;;;;;;5138377;27;20575;-96
2022/06/10 09:32:42;;;;;;;2.77;1.50;;;25.80;69.60;;;;;;5137964;27;20438;-95
2022/06/10 09:35:18;;;;;;;1.37;1.10;;;25.80;70.50;;;;;;5138517;27;20823;-96
2022/06/10 09:37:52;;;;;;;2.20;1.30;;;25.80;69.60;;;;;;5138526;27;20477;-95
2022/06/10 09:40:38;;;;;;;1.20;1.07;;;25.80;69.50;;;;;;5137748;27;20492;-95
2022/06/10 09:43:39;;;;;;;2.57;1.67;;;25.80;69.50;;;;;;5138101;27;20438;-94
2022/06/10 09:46:14;;;;;;;2.37;1.10;;;25.80;69.60;;;;;;5137560;27;20554;-94
2022/06/10 09:48:54;;;;;;;1.77;1.27;;;25.70;69.60;;;;;;5137297;27;20426;-92
2022/06/10 09:51:32;;;;;;;2.70;1.20;;;25.70;69.50;;;;;;5137394;27;20426;-94
2022/06/10 09:54:17;;;;;;;2.43;1.10;;;25.70;69.60;;;;;;5137617;27;20501;-95
2022/06/10 09:56:59;;;;;;;3.10;1.57;;;25.70;69.60;;;;;;5137276;27;20532;-90
2022/06/10 09:59:35;;;;;;;1.20;1.00;;;25.70;69.60;;;;;;5137147;27;20423;-95
2022/06/10 10:02:21;;;;;;;1.30;1.00;;;25.70;70.00;;;;;;5136922;27;20480;-95
2022/06/10 10:05:13;;;;;;;1.27;1.10;;;25.70;69.60;;;;;;5137236;27;20470;-94
2022/06/10 10:07:49;;;;;;;1.27;1.00;;;25.70;69.70;;;;;;5137420;27;20427;-95
2022/06/10 10:10:25;;;;;;;1.30;1.20;;;25.70;69.80;;;;;;5137103;27;20541;-93
2022/06/10 10:13:21;;;;;;;1.90;1.27;;;25.70;69.80;;;;;;5137003;27;20525;-93
2022/06/10 10:15:56;;;;;;;1.00;0.90;;;25.70;69.70;;;;;;5102482;27;20522;-93
2022/06/10 10:18:43;;;;;;;1.00;0.90;;;25.60;69.80;;;;;;5137010;27;20472;-95
2022/06/10 10:21:13;;;;;;;1.20;0.97;;;25.70;69.80;;;;;;5137443;27;20434;-94
2022/06/10 10:23:42;;;;;;;1.63;1.00;;;25.70;69.90;;;;;;5136700;27;20456;-93
2022/06/10 10:26:18;;;;;;;1.97;0.90;;;25.60;69.70;;;;;;5136838;27;20540;-95
2022/06/10 10:28:46;;;;;;;3.00;1.20;;;25.70;69.80;;;;;;5136960;27;20788;-94
2022/06/10 10:31:20;;;;;;;1.30;1.20;;;25.70;69.80;;;;;;5136211;27;20471;-94
2022/06/10 10:33:47;;;;;;;1.10;1.00;;;25.70;69.80;;;;;;5136998;27;20422;-95
2022/06/10 10:36:23;;;;;;;1.50;1.00;;;25.70;69.90;;;;;;5136275;27;20469;-92
2022/06/10 10:38:52;;;;;;;1.20;0.80;;;25.70;70.10;;;;;;5136663;27;20529;-94
2022/06/10 10:41:31;;;;;;;2.03;1.50;;;25.70;70.00;;;;;;5136399;27;20500;-95
2022/06/10 10:44:01;;;;;;;1.10;0.90;;;25.70;69.90;;;;;;5136586;27;20461;-95
2022/06/10 10:46:36;;;;;;;1.37;0.90;;;25.70;69.90;;;;;;5136550;27;20513;-94
2022/06/10 10:49:05;;;;;;;2.27;0.80;;;25.70;69.90;;;;;;5137252;27;20776;-95
2022/06/10 10:51:39;;;;;;;1.30;1.10;;;25.70;69.90;;;;;;5136572;27;20532;-90
2022/06/10 10:54:15;;;;;;;1.20;0.90;;;25.70;69.90;;;;;;5136340;27;20524;-95
2022/06/10 10:56:46;;;;;;;1.50;1.00;;;25.70;69.90;;;;;;5135995;27;20521;-94
2022/06/10 10:59:31;;;;;;;0.90;0.80;;;25.70;70.00;;;;;;5137679;27;20449;-94
2022/06/10 11:02:00;;;;;;;2.23;1.00;;;25.80;69.90;;;;;;5135771;27;20473;-95
2022/06/10 11:04:30;;;;;;;1.33;1.07;;;25.80;69.90;;;;;;5136147;27;20449;-96
2022/06/10 11:07:05;;;;;;;2.40;1.10;;;25.80;70.00;;;;;;5136577;27;20964;-95
2022/06/10 11:09:33;;;;;;;1.30;1.00;;;25.80;70.00;;;;;;5136121;27;20473;-94
2022/06/10 11:12:04;;;;;;;1.63;1.00;;;25.80;70.20;;;;;;5136108;27;20446;-95
2022/06/10 11:14:59;;;;;;;1.03;0.93;;;25.80;70.90;;;;;;5135875;27;20449;-95
2022/06/10 11:17:28;;;;;;;1.00;0.90;;;25.80;70.00;;;;;;5135998;27;20475;-95
2022/06/10 11:19:59;;;;;;;2.87;1.17;;;25.80;70.10;;;;;;5136295;27;20537;-95
2022/06/10 11:22:32;;;;;;;1.23;0.90;;;25.80;70.10;;;;;;5135505;27;20529;-95
2022/06/10 11:25:25;;;;;;;2.17;1.10;;;25.80;70.10;;;;;;5135542;27;20433;-95
2022/06/10 11:28:17;;;;;;;1.00;0.90;;;25.80;69.90;;;;;;5135897;27;20468;-95
2022/06/10 11:30:49;;;;;;;1.40;1.10;;;25.90;70.00;;;;;;5135368;27;20521;-90
2022/06/10 11:33:32;;;;;;;1.10;0.97;;;25.80;70.10;;;;;;5135667;27;20785;-94
2022/06/10 11:36:07;;;;;;;1.20;1.00;;;25.90;70.00;;;;;;5135330;27;20426;-91
2022/06/10 11:38:37;;;;;;;1.00;0.80;;;25.90;70.10;;;;;;5136127;27;20434;-96
2022/06/10 11:41:27;;;;;;;1.20;1.00;;;25.90;70.10;;;;;;5135421;27;20490;-95
2022/06/10 11:44:01;;;;;;;1.00;0.90;;;26.00;70.10;;;;;;5135356;27;20529;-96
2022/06/10 11:46:35;;;;;;;1.43;0.93;;;25.90;70.10;;;;;;5135337;27;20837;-95
2022/06/10 11:49:21;;;;;;;1.23;1.03;;;26.00;70.10;;;;;;5135643;27;20421;-95
2022/06/10 11:51:55;;;;;;;1.80;1.10;;;26.00;70.00;;;;;;5135312;27;20434;-95
2022/06/10 11:54:35;;;;;;;1.20;1.00;;;26.00;71.00;;;;;;5136145;27;20495;-94
2022/06/10 12:00:06;;;;;;;1.20;0.90;;;26.00;70.10;;;;;;5135198;27;20916;-95
2022/06/10 12:02:39;;;;;;;1.37;1.20;;;26.00;70.10;;;;;;5135325;27;20438;-91
2022/06/10 12:05:22;;;;;;;1.20;1.10;;;26.00;70.10;;;;;;5134998;28;20911;-96
2022/06/10 12:07:57;;;;;;;1.53;1.03;;;26.00;70.10;;;;;;5135234;28;20423;-95
2022/06/10 12:10:32;;;;;;;1.27;0.90;;;26.00;70.10;;;;;;5135628;28;20461;-95
2022/06/10 12:12:59;;;;;;;1.27;0.90;;;26.00;70.10;;;;;;5135108;28;20418;-96
2022/06/10 12:15:34;;;;;;;1.57;1.27;;;26.00;70.10;;;;;;5135182;28;20461;-94
2022/06/10 12:18:05;;;;;;;1.37;1.00;;;26.00;70.00;;;;;;5135352;28;20864;-90
2022/06/10 12:20:41;;;;;;;1.40;1.07;;;26.00;70.10;;;;;;5134972;28;20466;-95
2022/06/10 12:23:15;;;;;;;1.20;0.90;;;26.00;70.20;;;;;;5134907;28;20442;-95
2022/06/10 12:25:54;;;;;;;1.10;0.97;;;26.00;70.10;;;;;;5134856;28;20462;-90
2022/06/10 12:28:31;;;;;;;1.20;0.80;;;26.00;70.10;;;;;;5134829;28;20461;-95
2022/06/10 12:31:20;;;;;;;1.00;0.80;;;26.00;70.20;;;;;;5135061;28;20435;-95
2022/06/10 12:33:54;;;;;;;1.00;0.70;;;26.00;70.20;;;;;;5134969;28;20446;-95
2022/06/10 12:36:33;;;;;;;1.00;0.80;;;26.00;70.20;;;;;;5134796;28;20517;-94
2022/06/10 12:39:02;;;;;;;1.00;0.80;;;26.00;70.20;;;;;;5135440;28;20522;-94
2022/06/10 12:41:38;;;;;;;1.07;0.87;;;26.00;70.20;;;;;;5134970;28;20450;-95
2022/06/10 12:44:11;;;;;;;1.00;0.90;;;26.00;70.30;;;;;;5135588;28;20772;-95
2022/06/10 12:46:45;;;;;;;1.10;0.80;;;26.00;70.30;;;;;;5135095;28;20480;-95
2022/06/10 12:49:28;;;;;;;1.00;0.83;;;26.00;70.30;;;;;;5134566;28;20872;-92
2022/06/10 12:52:28;;;;;;;1.00;0.70;;;26.00;70.20;;;;;;5135815;28;20446;-90
2022/06/10 12:58:02;;;;;;;1.50;0.80;;;26.00;70.30;;;;;;5154352;27;20517;-90
2022/06/10 13:00:43;;;;;;;1.07;0.80;;;26.00;70.30;;;;;;5136929;27;20470;-96
2022/06/10 13:03:36;;;;;;;0.93;0.70;;;26.00;70.30;;;;;;5151682;27;20465;-92
2022/06/10 13:06:08;;;;;;;1.17;0.90;;;26.00;70.20;;;;;;5149001;27;20481;-92
2022/06/10 13:08:55;;;;;;;1.20;0.90;;;26.00;70.40;;;;;;5148285;27;20466;-92
2022/06/10 13:11:46;;;;;;;1.00;0.80;;;25.90;70.30;;;;;;5146621;27;20453;-91
2022/06/10 13:14:42;;;;;;;3.67;1.00;;;26.00;70.30;;;;;;5146837;27;20434;-96
2022/06/10 13:17:29;;;;;;;1.30;1.20;;;26.00;70.40;;;;;;5149279;27;20595;-93
2022/06/10 13:20:24;;;;;;;1.23;1.07;;;26.00;70.40;;;;;;5149863;27;20430;-92
2022/06/10 13:23:24;;;;;;;1.87;1.10;;;26.00;70.40;;;;;;5122885;27;20437;-91
2022/06/10 13:26:19;;;;;;;1.43;1.10;;;26.00;70.30;;;;;;5115722;27;20466;-93
2022/06/10 13:29:14;;;;;;;2.00;0.97;;;26.00;70.30;;;;;;5144261;27;20438;-91
2022/06/10 13:31:48;;;;;;;1.40;0.80;;;26.00;70.40;;;;;;5146828;27;20448;-91
2022/06/10 13:34:30;;;;;;;1.47;1.27;;;26.00;70.50;;;;;;5147017;27;20469;-91